GAF23B EDLP-EDDB
Flight info
| Callsign | GAF23B |
|---|---|
| Flight time | 0h 49m |
| Altitude | 19000 |
| Route | WRB1W WRB Z190 ERSET N858 MAXOT T212 RELKO T278 KLF KLF1R |
| Aircraft | A400/H-SDE3FGHIRWY/L4T |
Departure
| Time | 2026-05-07 11:44 |
|---|---|
| Airport | Paderborn Lippstadt Airport (EDLP) |
Arrival
| Time | 2026-05-07 12:33 |
|---|---|
| Airport | Berlin Brandenburg Airport (EDDB) |
| Time | Latitude | Longitude | Altitude | Speed | Heading |
|---|---|---|---|---|---|
| 2026-05-07 11:29 | 51.61197 | 8.62137 | 738 ft | 0 kts | 146° |
| 2026-05-07 11:37 | 51.61197 | 8.62136 | 738 ft | 1 kts | 146° |
| 2026-05-07 11:38 | 51.61219 | 8.62117 | 736 ft | 4 kts | 160° |
| 2026-05-07 11:38 | 51.61244 | 8.62108 | 738 ft | 4 kts | 189° |
| 2026-05-07 11:38 | 51.61264 | 8.62123 | 738 ft | 1 kts | 236° |
| 2026-05-07 11:38 | 51.61266 | 8.62130 | 737 ft | 0 kts | 236° |
| 2026-05-07 11:40 | 51.61264 | 8.62124 | 738 ft | 7 kts | 236° |
| 2026-05-07 11:41 | 51.61158 | 8.61859 | 740 ft | 37 kts | 236° |
| 2026-05-07 11:41 | 51.61028 | 8.61538 | 740 ft | 32 kts | 237° |
| 2026-05-07 11:41 | 51.60973 | 8.61234 | 734 ft | 29 kts | 277° |
| 2026-05-07 11:41 | 51.60951 | 8.60952 | 728 ft | 22 kts | 236° |
| 2026-05-07 11:42 | 51.60859 | 8.60755 | 727 ft | 22 kts | 234° |
| 2026-05-07 11:42 | 51.60771 | 8.60548 | 723 ft | 22 kts | 240° |
| 2026-05-07 11:42 | 51.60802 | 8.60359 | 723 ft | 17 kts | 329° |
| 2026-05-07 11:42 | 51.60852 | 8.60285 | 724 ft | 5 kts | 345° |
| 2026-05-07 11:43 | 51.60865 | 8.60304 | 725 ft | 4 kts | 47° |
| 2026-05-07 11:43 | 51.60886 | 8.60356 | 724 ft | 8 kts | 56° |
| 2026-05-07 11:43 | 51.61089 | 8.60848 | 726 ft | 105 kts | 57° |
| 2026-05-07 11:43 | 51.61660 | 8.62222 | 993 ft | 171 kts | 55° |
| 2026-05-07 11:44 | 51.62312 | 8.63905 | 2008 ft | 181 kts | 55° |
| 2026-05-07 11:44 | 51.63031 | 8.65660 | 2996 ft | 202 kts | 54° |
| 2026-05-07 11:44 | 51.63839 | 8.67712 | 3585 ft | 236 kts | 62° |
| 2026-05-07 11:44 | 51.64378 | 8.70324 | 4439 ft | 253 kts | 74° |
| 2026-05-07 11:45 | 51.64747 | 8.73130 | 5496 ft | 259 kts | 77° |
| 2026-05-07 11:45 | 51.64938 | 8.76040 | 6575 ft | 266 kts | 90° |
| 2026-05-07 11:45 | 51.64514 | 8.78967 | 7590 ft | 274 kts | 113° |
| 2026-05-07 11:45 | 51.63535 | 8.81631 | 8648 ft | 279 kts | 122° |
| 2026-05-07 11:46 | 51.62407 | 8.84206 | 9740 ft | 283 kts | 124° |
| 2026-05-07 11:46 | 51.61238 | 8.86818 | 10579 ft | 296 kts | 124° |
| 2026-05-07 11:46 | 51.59993 | 8.89621 | 10940 ft | 319 kts | 124° |
| 2026-05-07 11:46 | 51.58681 | 8.92599 | 11410 ft | 333 kts | 124° |
| 2026-05-07 11:47 | 51.57331 | 8.95675 | 11971 ft | 340 kts | 124° |
| 2026-05-07 11:47 | 51.55954 | 8.98815 | 12590 ft | 346 kts | 124° |
| 2026-05-07 11:47 | 51.54563 | 9.01990 | 13232 ft | 350 kts | 124° |
| 2026-05-07 11:47 | 51.53152 | 9.05209 | 13871 ft | 354 kts | 124° |
| 2026-05-07 11:48 | 51.51732 | 9.08447 | 14451 ft | 357 kts | 124° |
| 2026-05-07 11:48 | 51.50273 | 9.11703 | 15043 ft | 360 kts | 126° |
| 2026-05-07 11:48 | 51.48739 | 9.14911 | 15670 ft | 363 kts | 127° |
| 2026-05-07 11:48 | 51.47162 | 9.18079 | 16277 ft | 366 kts | 128° |
| 2026-05-07 11:49 | 51.45553 | 9.21254 | 16916 ft | 368 kts | 128° |
| 2026-05-07 11:49 | 51.43932 | 9.24436 | 17559 ft | 369 kts | 129° |
| 2026-05-07 11:49 | 51.42296 | 9.27628 | 18212 ft | 371 kts | 129° |
| 2026-05-07 11:49 | 51.41200 | 9.29735 | 18580 ft | 373 kts | 130° |
| 2026-05-07 11:50 | 51.39526 | 9.32930 | 18928 ft | 376 kts | 130° |
| 2026-05-07 11:50 | 51.37833 | 9.36147 | 19012 ft | 378 kts | 130° |
| 2026-05-07 11:50 | 51.36139 | 9.39361 | 19020 ft | 378 kts | 130° |
| 2026-05-07 11:50 | 51.34448 | 9.42570 | 19021 ft | 377 kts | 130° |
| 2026-05-07 11:51 | 51.32212 | 9.46814 | 19021 ft | 377 kts | 130° |
| 2026-05-07 11:51 | 51.31072 | 9.48978 | 19021 ft | 377 kts | 130° |
| 2026-05-07 11:51 | 51.29381 | 9.52186 | 19021 ft | 377 kts | 130° |
| 2026-05-07 11:51 | 51.27693 | 9.55387 | 19022 ft | 376 kts | 130° |
| 2026-05-07 11:52 | 51.26007 | 9.58579 | 19023 ft | 377 kts | 130° |
| 2026-05-07 11:52 | 51.24319 | 9.61772 | 19022 ft | 376 kts | 130° |
| 2026-05-07 11:52 | 51.22629 | 9.64965 | 19022 ft | 376 kts | 130° |
| 2026-05-07 11:52 | 51.20862 | 9.68035 | 19024 ft | 376 kts | 137° |
| 2026-05-07 11:53 | 51.18844 | 9.70700 | 19023 ft | 376 kts | 142° |
| 2026-05-07 11:53 | 51.16751 | 9.73191 | 19025 ft | 376 kts | 144° |
| 2026-05-07 11:53 | 51.14610 | 9.75579 | 19024 ft | 376 kts | 146° |
| 2026-05-07 11:53 | 51.12444 | 9.77913 | 19023 ft | 376 kts | 146° |
| 2026-05-07 11:54 | 51.10270 | 9.80225 | 19024 ft | 376 kts | 146° |
| 2026-05-07 11:54 | 51.08095 | 9.82535 | 19023 ft | 376 kts | 146° |
| 2026-05-07 11:54 | 51.05922 | 9.84850 | 19022 ft | 376 kts | 146° |
| 2026-05-07 11:54 | 51.03753 | 9.87171 | 19021 ft | 376 kts | 146° |
| 2026-05-07 11:55 | 51.01621 | 9.89480 | 19022 ft | 376 kts | 143° |
| 2026-05-07 11:55 | 50.99689 | 9.92270 | 19020 ft | 376 kts | 131° |
| 2026-05-07 11:55 | 50.98263 | 9.95740 | 19017 ft | 376 kts | 114° |
| 2026-05-07 11:55 | 50.97575 | 9.99716 | 19017 ft | 375 kts | 95° |
| 2026-05-07 11:56 | 50.97752 | 10.03814 | 19020 ft | 374 kts | 76° |
| 2026-05-07 11:56 | 50.98548 | 10.07733 | 19016 ft | 373 kts | 68° |
| 2026-05-07 11:56 | 50.99585 | 10.11504 | 19017 ft | 373 kts | 64° |
| 2026-05-07 11:56 | 51.00742 | 10.15204 | 19010 ft | 373 kts | 63° |
| 2026-05-07 11:57 | 51.01932 | 10.18863 | 19015 ft | 374 kts | 62° |
| 2026-05-07 11:57 | 51.03125 | 10.22540 | 19015 ft | 374 kts | 63° |
| 2026-05-07 11:57 | 51.04294 | 10.26221 | 19012 ft | 374 kts | 63° |
| 2026-05-07 11:57 | 51.05434 | 10.29943 | 19013 ft | 374 kts | 64° |
| 2026-05-07 11:58 | 51.06525 | 10.33700 | 19011 ft | 374 kts | 65° |
| 2026-05-07 11:58 | 51.07591 | 10.37473 | 19013 ft | 375 kts | 65° |
| 2026-05-07 11:58 | 51.08649 | 10.41262 | 19012 ft | 375 kts | 66° |
| 2026-05-07 11:58 | 51.09706 | 10.45058 | 19010 ft | 375 kts | 66° |
| 2026-05-07 11:59 | 51.10763 | 10.48851 | 19009 ft | 375 kts | 66° |
| 2026-05-07 11:59 | 51.11823 | 10.52645 | 19010 ft | 376 kts | 66° |
| 2026-05-07 11:59 | 51.12885 | 10.56446 | 19006 ft | 376 kts | 66° |
| 2026-05-07 11:59 | 51.13888 | 10.60281 | 19013 ft | 376 kts | 71° |
| 2026-05-07 12:00 | 51.14425 | 10.64356 | 19019 ft | 376 kts | 84° |
| 2026-05-07 12:00 | 51.14565 | 10.68516 | 19019 ft | 376 kts | 89° |
| 2026-05-07 12:00 | 51.14527 | 10.72684 | 19019 ft | 376 kts | 92° |
| 2026-05-07 12:00 | 51.14387 | 10.76839 | 19015 ft | 376 kts | 94° |
| 2026-05-07 12:01 | 51.14202 | 10.80991 | 19019 ft | 376 kts | 94° |
| 2026-05-07 12:01 | 51.14005 | 10.85133 | 19019 ft | 376 kts | 94° |
| 2026-05-07 12:01 | 51.13812 | 10.89278 | 19019 ft | 375 kts | 94° |
| 2026-05-07 12:01 | 51.13628 | 10.93427 | 19016 ft | 375 kts | 94° |
| 2026-05-07 12:02 | 51.13453 | 10.97562 | 19017 ft | 375 kts | 94° |
| 2026-05-07 12:02 | 51.13286 | 11.01647 | 19020 ft | 374 kts | 93° |
| 2026-05-07 12:02 | 51.13118 | 11.05833 | 19018 ft | 374 kts | 93° |
| 2026-05-07 12:02 | 51.12867 | 11.09897 | 19016 ft | 374 kts | 100° |
| 2026-05-07 12:03 | 51.12323 | 11.13943 | 19020 ft | 374 kts | 103° |
| 2026-05-07 12:03 | 51.11679 | 11.17956 | 19019 ft | 374 kts | 105° |
| 2026-05-07 12:03 | 51.10971 | 11.21942 | 19018 ft | 374 kts | 106° |
| 2026-05-07 12:03 | 51.10231 | 11.25912 | 19017 ft | 375 kts | 106° |
| 2026-05-07 12:04 | 51.09477 | 11.29885 | 19012 ft | 375 kts | 106° |
| 2026-05-07 12:04 | 51.08722 | 11.33855 | 19014 ft | 376 kts | 106° |
| 2026-05-07 12:04 | 51.07968 | 11.37832 | 19012 ft | 376 kts | 106° |
| 2026-05-07 12:04 | 51.07220 | 11.41817 | 19012 ft | 376 kts | 105° |
| 2026-05-07 12:05 | 51.06785 | 11.45909 | 19012 ft | 376 kts | 92° |
| 2026-05-07 12:05 | 51.06999 | 11.50031 | 19011 ft | 375 kts | 76° |
| 2026-05-07 12:05 | 51.07811 | 11.53970 | 19006 ft | 375 kts | 68° |
| 2026-05-07 12:05 | 51.08870 | 11.57764 | 19008 ft | 375 kts | 63° |
| 2026-05-07 12:06 | 51.10057 | 11.61452 | 19006 ft | 375 kts | 61° |
| 2026-05-07 12:06 | 51.11300 | 11.65098 | 19005 ft | 375 kts | 60° |
| 2026-05-07 12:06 | 51.12553 | 11.68731 | 19001 ft | 374 kts | 60° |
| 2026-05-07 12:06 | 51.13794 | 11.72371 | 19005 ft | 374 kts | 61° |
| 2026-05-07 12:07 | 51.15019 | 11.76028 | 19001 ft | 374 kts | 62° |
| 2026-05-07 12:07 | 51.16230 | 11.79697 | 19003 ft | 374 kts | 62° |
| 2026-05-07 12:07 | 51.17430 | 11.83375 | 19001 ft | 374 kts | 62° |
| 2026-05-07 12:07 | 51.18625 | 11.87064 | 19009 ft | 375 kts | 62° |
| 2026-05-07 12:08 | 51.19819 | 11.90761 | 19008 ft | 375 kts | 62° |
| 2026-05-07 12:08 | 51.21197 | 11.94286 | 19008 ft | 374 kts | 52° |
| 2026-05-07 12:08 | 51.22826 | 11.97515 | 19014 ft | 374 kts | 49° |
| 2026-05-07 12:08 | 51.24531 | 12.00598 | 19016 ft | 375 kts | 47° |
| 2026-05-07 12:09 | 51.26306 | 12.03634 | 19014 ft | 375 kts | 46° |
| 2026-05-07 12:09 | 51.28110 | 12.06640 | 19016 ft | 375 kts | 45° |
| 2026-05-07 12:09 | 51.29924 | 12.09641 | 19013 ft | 375 kts | 45° |
| 2026-05-07 12:09 | 51.31733 | 12.12638 | 19017 ft | 374 kts | 46° |
| 2026-05-07 12:10 | 51.33535 | 12.15645 | 19020 ft | 374 kts | 46° |
| 2026-05-07 12:10 | 51.35327 | 12.18652 | 19022 ft | 374 kts | 46° |
| 2026-05-07 12:10 | 51.37118 | 12.21673 | 19025 ft | 373 kts | 46° |
| 2026-05-07 12:10 | 51.38899 | 12.24686 | 19020 ft | 372 kts | 46° |
| 2026-05-07 12:11 | 51.40674 | 12.27697 | 19022 ft | 372 kts | 46° |
| 2026-05-07 12:11 | 51.42448 | 12.30711 | 19019 ft | 371 kts | 46° |
| 2026-05-07 12:11 | 51.44216 | 12.33719 | 19021 ft | 370 kts | 46° |
| 2026-05-07 12:11 | 51.45979 | 12.36722 | 19019 ft | 369 kts | 46° |
| 2026-05-07 12:12 | 51.47737 | 12.39718 | 19019 ft | 369 kts | 46° |
| 2026-05-07 12:12 | 51.49495 | 12.42719 | 19016 ft | 369 kts | 46° |
| 2026-05-07 12:12 | 51.51255 | 12.45726 | 19018 ft | 370 kts | 47° |
| 2026-05-07 12:12 | 51.53016 | 12.48738 | 19016 ft | 370 kts | 47° |
| 2026-05-07 12:13 | 51.54781 | 12.51759 | 19017 ft | 371 kts | 47° |
| 2026-05-07 12:13 | 51.56548 | 12.54789 | 19019 ft | 372 kts | 47° |
| 2026-05-07 12:13 | 51.58317 | 12.57825 | 19013 ft | 372 kts | 47° |
| 2026-05-07 12:13 | 51.60089 | 12.60872 | 19013 ft | 373 kts | 47° |
| 2026-05-07 12:14 | 51.61863 | 12.63923 | 19012 ft | 374 kts | 47° |
| 2026-05-07 12:14 | 51.63636 | 12.66978 | 19013 ft | 374 kts | 47° |
| 2026-05-07 12:14 | 51.65415 | 12.70047 | 19013 ft | 375 kts | 47° |
| 2026-05-07 12:14 | 51.67193 | 12.73118 | 19009 ft | 375 kts | 47° |
| 2026-05-07 12:15 | 51.68972 | 12.76195 | 19011 ft | 375 kts | 47° |
| 2026-05-07 12:15 | 51.70753 | 12.79278 | 19015 ft | 376 kts | 47° |
| 2026-05-07 12:15 | 51.72534 | 12.82365 | 19013 ft | 377 kts | 47° |
| 2026-05-07 12:15 | 51.74318 | 12.85463 | 19018 ft | 377 kts | 47° |
| 2026-05-07 12:16 | 51.76103 | 12.88564 | 19014 ft | 377 kts | 47° |
| 2026-05-07 12:16 | 51.77749 | 12.91854 | 19019 ft | 377 kts | 56° |
| 2026-05-07 12:16 | 51.79180 | 12.95349 | 19019 ft | 377 kts | 58° |
| 2026-05-07 12:16 | 51.80573 | 12.98940 | 19021 ft | 378 kts | 59° |
| 2026-05-07 12:17 | 51.81949 | 13.02556 | 19021 ft | 378 kts | 59° |
| 2026-05-07 12:17 | 51.83301 | 13.06137 | 18813 ft | 365 kts | 59° |
| 2026-05-07 12:17 | 51.84578 | 13.09530 | 17904 ft | 341 kts | 60° |
| 2026-05-07 12:17 | 51.85783 | 13.12746 | 16596 ft | 331 kts | 60° |
| 2026-05-07 12:18 | 51.86979 | 13.15946 | 16155 ft | 338 kts | 60° |
| 2026-05-07 12:18 | 51.88225 | 13.19289 | 15692 ft | 355 kts | 60° |
| 2026-05-07 12:18 | 51.89508 | 13.22734 | 15123 ft | 359 kts | 59° |
| 2026-05-07 12:18 | 51.90796 | 13.26191 | 14535 ft | 358 kts | 60° |
| 2026-05-07 12:19 | 51.92079 | 13.29642 | 13961 ft | 356 kts | 60° |
| 2026-05-07 12:19 | 51.93349 | 13.33062 | 13348 ft | 353 kts | 60° |
| 2026-05-07 12:19 | 51.94609 | 13.36460 | 12808 ft | 350 kts | 60° |
| 2026-05-07 12:19 | 51.95843 | 13.39790 | 12254 ft | 347 kts | 60° |
| 2026-05-07 12:20 | 51.97075 | 13.43122 | 11672 ft | 343 kts | 60° |
| 2026-05-07 12:20 | 51.98301 | 13.46398 | 11101 ft | 338 kts | 57° |
| 2026-05-07 12:20 | 51.99890 | 13.49149 | 10579 ft | 335 kts | 35° |
| 2026-05-07 12:20 | 52.02007 | 13.50396 | 10393 ft | 314 kts | 5° |
| 2026-05-07 12:21 | 52.04067 | 13.49922 | 10334 ft | 291 kts | 339° |
| 2026-05-07 12:21 | 52.05740 | 13.48125 | 10130 ft | 293 kts | 316° |
| 2026-05-07 12:21 | 52.07066 | 13.45606 | 9696 ft | 292 kts | 308° |
| 2026-05-07 12:21 | 52.08273 | 13.42961 | 9307 ft | 291 kts | 307° |
| 2026-05-07 12:22 | 52.09380 | 13.40250 | 8984 ft | 286 kts | 302° |
| 2026-05-07 12:22 | 52.10423 | 13.37492 | 8762 ft | 288 kts | 302° |
| 2026-05-07 12:22 | 52.11464 | 13.34696 | 8417 ft | 289 kts | 302° |
| 2026-05-07 12:22 | 52.12487 | 13.31909 | 8023 ft | 285 kts | 302° |
| 2026-05-07 12:23 | 52.13495 | 13.29141 | 7626 ft | 283 kts | 302° |
| 2026-05-07 12:23 | 52.14478 | 13.26427 | 7247 ft | 281 kts | 301° |
| 2026-05-07 12:23 | 52.15462 | 13.23700 | 6853 ft | 278 kts | 302° |
| 2026-05-07 12:23 | 52.16438 | 13.20990 | 6480 ft | 276 kts | 301° |
| 2026-05-07 12:24 | 52.17405 | 13.18302 | 6086 ft | 274 kts | 301° |
| 2026-05-07 12:24 | 52.18364 | 13.15633 | 5686 ft | 272 kts | 301° |
| 2026-05-07 12:24 | 52.19316 | 13.12977 | 5322 ft | 272 kts | 301° |
| 2026-05-07 12:24 | 52.20266 | 13.10330 | 4935 ft | 270 kts | 301° |
| 2026-05-07 12:25 | 52.21312 | 13.07807 | 4510 ft | 268 kts | 312° |
| 2026-05-07 12:25 | 52.22721 | 13.05890 | 4129 ft | 263 kts | 333° |
| 2026-05-07 12:25 | 52.24438 | 13.05050 | 3999 ft | 257 kts | 358° |
| 2026-05-07 12:25 | 52.26159 | 13.05523 | 3991 ft | 246 kts | 25° |
| 2026-05-07 12:26 | 52.27375 | 13.07113 | 4001 ft | 207 kts | 53° |
| 2026-05-07 12:26 | 52.27973 | 13.09099 | 4007 ft | 189 kts | 71° |
| 2026-05-07 12:26 | 52.28321 | 13.11131 | 4010 ft | 184 kts | 75° |
| 2026-05-07 12:26 | 52.28644 | 13.13143 | 4006 ft | 183 kts | 74° |
| 2026-05-07 12:27 | 52.28988 | 13.15132 | 4006 ft | 181 kts | 72° |
| 2026-05-07 12:27 | 52.29330 | 13.16964 | 4009 ft | 159 kts | 71° |
| 2026-05-07 12:27 | 52.29683 | 13.18629 | 4004 ft | 152 kts | 69° |
| 2026-05-07 12:27 | 52.30051 | 13.20256 | 3781 ft | 153 kts | 68° |
| 2026-05-07 12:28 | 52.30423 | 13.21856 | 3629 ft | 148 kts | 68° |
| 2026-05-07 12:28 | 52.30793 | 13.23424 | 3391 ft | 148 kts | 67° |
| 2026-05-07 12:28 | 52.31166 | 13.24989 | 3184 ft | 146 kts | 67° |
| 2026-05-07 12:28 | 52.31529 | 13.26513 | 3028 ft | 142 kts | 67° |
| 2026-05-07 12:29 | 52.31889 | 13.28019 | 3012 ft | 143 kts | 68° |
| 2026-05-07 12:29 | 52.32252 | 13.29534 | 3017 ft | 143 kts | 67° |
| 2026-05-07 12:29 | 52.32609 | 13.31026 | 2997 ft | 142 kts | 67° |
| 2026-05-07 12:29 | 52.32968 | 13.32530 | 2999 ft | 142 kts | 67° |
| 2026-05-07 12:30 | 52.33329 | 13.34039 | 3008 ft | 143 kts | 67° |
| 2026-05-07 12:30 | 52.33691 | 13.35555 | 3005 ft | 143 kts | 67° |
| 2026-05-07 12:30 | 52.34047 | 13.37045 | 2952 ft | 132 kts | 67° |
| 2026-05-07 12:30 | 52.34374 | 13.38422 | 2524 ft | 130 kts | 67° |
| 2026-05-07 12:31 | 52.34693 | 13.39747 | 2141 ft | 119 kts | 67° |
| 2026-05-07 12:31 | 52.34970 | 13.41039 | 1540 ft | 124 kts | 70° |
| 2026-05-07 12:31 | 52.35242 | 13.42391 | 987 ft | 122 kts | 66° |
| 2026-05-07 12:31 | 52.35513 | 13.43607 | 704 ft | 105 kts | 66° |
| 2026-05-07 12:32 | 52.35838 | 13.44858 | 835 ft | 123 kts | 63° |
| 2026-05-07 12:32 | 52.36178 | 13.46079 | 495 ft | 116 kts | 63° |
| 2026-05-07 12:32 | 52.36514 | 13.47436 | 380 ft | 124 kts | 66° |
| 2026-05-07 12:32 | 52.36841 | 13.48803 | 202 ft | 121 kts | 66° |
| 2026-05-07 12:33 | 52.37210 | 13.50315 | 166 ft | 44 kts | 68° |
| 2026-05-07 12:33 | 52.37301 | 13.50724 | 166 ft | 35 kts | 66° |
| 2026-05-07 12:33 | 52.37407 | 13.51121 | 170 ft | 41 kts | 65° |
| 2026-05-07 12:34 | 52.37632 | 13.51389 | 167 ft | 37 kts | 9° |
| 2026-05-07 12:34 | 52.37804 | 13.51429 | 164 ft | 11 kts | 7° |
| 2026-05-07 12:34 | 52.37920 | 13.51456 | 163 ft | 27 kts | 8° |
| 2026-05-07 12:34 | 52.37969 | 13.51389 | 162 ft | 8 kts | 261° |
| 2026-05-07 12:35 | 52.37921 | 13.51277 | 163 ft | 17 kts | 246° |
| 2026-05-07 12:35 | 52.37904 | 13.51078 | 161 ft | 18 kts | 284° |
| 2026-05-07 12:35 | 52.37901 | 13.50883 | 162 ft | 17 kts | 244° |
| 2026-05-07 12:35 | 52.37846 | 13.50711 | 161 ft | 14 kts | 260° |
| 2026-05-07 12:36 | 52.37880 | 13.50668 | 161 ft | 6 kts | 0° |
| 2026-05-07 12:36 | 52.37914 | 13.50691 | 161 ft | 5 kts | 26° |
| 2026-05-07 12:36 | 52.37931 | 13.50706 | 161 ft | 0 kts | 27° |
| 2026-05-07 12:37 | 52.37959 | 13.50729 | 161 ft | 0 kts | 207° |